This is the latest recevied weather packets stored in our database for station/object N4DWK. If no packets are shown the sender has not sent any weather packets the latest 10 day(s).
| Time | Temp. | Humidity | Pressure | Rain* | Wind** | Luminosity | Snow |
|---|---|---|---|---|---|---|---|
| 1788042910 | 27.78° C | 73% | 1021.2 hPa | 0 mm | - | 19 W/m² | - |
| 1788042610 | 27.78° C | 73% | 1021.2 hPa | 0 mm | - | 30 W/m² | - |
| 1788042309 | 27.78° C | 74% | 1021.2 hPa | 0 mm | - | 37 W/m² | - |
| 1788042010 | 28.33° C | 72% | 1021.4 hPa | 0 mm | - | 33 W/m² | - |
| 1788041710 | 28.33° C | 74% | 1021.3 hPa | 0 mm | - | 40 W/m² | - |
| 1788041410 | 27.78° C | 74% | 1021.2 hPa | 0 mm | - | 155 W/m² | - |
| 1788041110 | 28.33° C | 74% | 1021.3 hPa | 0 mm | - | 123 W/m² | - |
| 1788040810 | 28.33° C | 72% | 1021.2 hPa | 0 mm | - | 37 W/m² | - |
| 1788040509 | 28.33° C | 71% | 1021.2 hPa | 0 mm | - | 26 W/m² | - |
| 1788040209 | 28.89° C | 70% | 1021.4 hPa | 0 mm | - | 53 W/m² | - |
| 1788039917 | 28.33° C | 72% | 1021.4 hPa | 0 mm | - | 241 W/m² | - |
| 1788039610 | 28.33° C | 75% | 1021.4 hPa | 0 mm | - | 250 W/m² | - |
| 1788039310 | 28.33° C | 73% | 1021.5 hPa | 0 mm | - | 83 W/m² | - |
| 1788039009 | 28.33° C | 73% | 1021.5 hPa | 0 mm | - | 72 W/m² | - |
| 1788038709 | 28.33° C | 73% | 1021.5 hPa | 0 mm | - | 58 W/m² | - |
| 1788038410 | 28.33° C | 72% | 1021.6 hPa | 0 mm | - | 63 W/m² | - |
| 1788038109 | 28.33° C | 72% | 1021.6 hPa | 0 mm | - | 70 W/m² | - |
| 1788037810 | 28.33° C | 73% | 1021.5 hPa | 0 mm | - | 88 W/m² | - |
| 1788037509 | 28.33° C | 72% | 1021.6 hPa | 0 mm | - | 105 W/m² | - |
| 1788037220 | 28.89° C | 71% | 1021.7 hPa | 0 mm | - | 141 W/m² | - |
| 1788036909 | 29.44° C | 70% | 1021.7 hPa | 0 mm | - | 144 W/m² | - |
| 1788036610 | 28.89° C | 71% | 1021.7 hPa | 0 mm | - | 378 W/m² | - |
| 1788036309 | 28.33° C | 72% | 1021.7 hPa | 0 mm | - | 360 W/m² | - |
| 1788036011 | 27.78° C | 76% | 1021.8 hPa | 0 mm | - | 88 W/m² | - |
| 1788035710 | 27.78° C | 74% | 1021.9 hPa | 0 mm | - | 155 W/m² | - |
* Rain latest hour (hover to see other rain measurements)
** Current wind speed in m/s (hover to see current wind gust speed)